Langley Air Force Base, VA

3:00 PM EDT on May 28, 2015 (GMT -0400)
Nelson Farms | | Change Station
CLOSE
Current Station
Personal Weather Station
Location: Hampton, VA
Elevation: 23 ft
Nearby Weather Stations

Elev 23 ft 37.07 °N, 76.42 °W | Updated 16 seconds ago

Overcast
Overcast
88.7 °F
Feels Like 97 °F
N
2.2
Wind Variable Wind from ESE
Gusts 4.2 mph

Today
High -- | Low -- °F
--% Chance of Precip.
Yesterday
High -- | Low -- °F
Precip. -- in
5:48 AM 8:16 PM
Waxing Gibbous, 77% visible
Pressure 30.18 in
Visibility 10.0 miles
Clouds Few 3700 ft
Scattered Clouds 4500 ft
Mostly Cloudy 5500 ft
Mostly Cloudy 17000 ft
Heat Index 97 °F
Dew Point 73 °F
Humidity 60%
Rainfall 0.00 in
Snow Depth Not available.
UV 5 out of 12
Pollen 5.40 out of 12
Air Quality Not available.
Flu Activity No Activity
SPECI KLFI 281853Z AUTO 17008KT 10SM -DZ FEW037 SCT045 BKN055 BKN170 29/21 A3018 RMK AO2 LTG DSNT N-NE DZB53

More Conditions Fewer Conditions

Pressure 30.18 in
Visibility 10.0 miles
Clouds Few 3700 ft
Scattered Clouds 4500 ft
Mostly Cloudy 5500 ft
Mostly Cloudy 17000 ft
Heat Index 97 °F
Dew Point 73 °F
Humidity 60%
Rainfall 0.00 in
Snow Depth Not available.
UV 5 out of 12
Pollen 5.40 out of 12
Air Quality Not available.
Flu Activity No Activity
SPECI KLFI 281853Z AUTO 17008KT 10SM -DZ FEW037 SCT045 BKN055 BKN170 29/21 A3018 RMK AO2 LTG DSNT N-NE DZB53

More Conditions Fewer Conditions

10-Day Weather Forecast

Almanac

Astronomy

May. 28, 2015 Rise Set
Actual Time
Civil Twilight
Nautical Twilight
Astronomical Twilight
Moon
Length of Visible Light
Length of Day
Tomorrow will be .
, % of the Moon is Illuminated

Today's Extremes

State Highs State Lows

Community

WunderPhotos

Upload Photos

1,825,024 photos uploaded!

WunderBlogs® & News

Nearby

Air Quality

  Air Quality AQ Index Pollutant
Not available.

Snow Depth

Station Depth Elevation

Earthquake Activity

City Distance Mag. Time & Date
Minimum magnitude displayed is 2.5.

Coastal Water Temperatures

Place Temperature

Stations

Nearby Weather Stations

Station Location Temp. Windchill Dew Point Humidity Wind Precip. Elev Updated Type